Terminal Aerodrome Forecast
Issued by NWS

Current Version | Previous Version | Text Only | Print | Product List | Glossary On
Versions: 1 2 3 4 5 6 7 8 9 10 11 12 13 14 15 16 17 18 19 20 21 22 23 24 25 26 27 28 29 30 31 32 33 34 35 36 37 38 39 40
000
FTUS46 KOTX 300617 AAA
TAFSFF
TAF AMD
KSFF 300617Z 3006/3106 04006KT P6SM VCTS BKN080CB BKN120
     FM301500 08006KT P6SM VCTS BKN080CB BKN120
     FM301800 16004KT P6SM SCT100 SCT200
     FM302200 21008G16KT P6SM VCTS BKN070CB BKN120=

USA.gov is the U.S. government's official web portal to all federal, state and local government web resources and services.